Time;durP1;ratioP1;P1;durP2;ratioP2;P2;SDS_P1;SDS_P2;PMS_P1;PMS_P2;Temp;Humidity;BMP_temperature;BMP_pressure;BME280_temperature;BME280_humidity;BME280_pressure;Samples;Min_cycle;Max_cycle;Signal;HPM_P1;HPM_P2
2022/04/25 00:00:35;;;;;;;6.70;2.53;;;;;;;;;;4999598;28;20228;-14
2022/04/25 00:03:04;;;;;;;9.55;2.45;;;;;;;;;;4997649;28;20236;-14
2022/04/25 00:05:32;;;;;;;3.85;2.20;;;;;;;;;;5001813;28;20235;-14
2022/04/25 00:08:00;;;;;;;2.55;2.03;;;;;;;;;;5000539;28;22601;-14
2022/04/25 00:10:27;;;;;;;9.50;3.00;;;;;;;;;;5003187;28;20240;-14
2022/04/25 00:12:54;;;;;;;9.82;2.42;;;;;;;;;;4995180;28;20240;-14
2022/04/25 00:15:22;;;;;;;7.22;2.17;;;;;;;;;;5000959;28;21051;-14
2022/04/25 00:17:49;;;;;;;3.50;2.08;;;;;;;;;;4997455;28;20239;-14
2022/04/25 00:20:18;;;;;;;6.53;2.40;;;;;;;;;;5000634;28;20741;-14
2022/04/25 00:22:46;;;;;;;3.72;2.22;;;;;;;;;;5000945;28;20250;-14
2022/04/25 00:25:13;;;;;;;4.15;2.08;;;;;;;;;;4996634;28;20235;-14
2022/04/25 00:27:41;;;;;;;2.97;1.98;;;;;;;;;;5004710;28;20259;-14
2022/04/25 00:30:09;;;;;;;5.50;2.15;;;;;;;;;;4998167;28;20238;-14
2022/04/25 00:32:36;;;;;;;4.13;2.42;;;;;;;;;;5004342;28;20236;-14
2022/04/25 00:35:04;;;;;;;3.10;1.83;;;;;;;;;;4996136;28;20235;-14
2022/04/25 00:37:32;;;;;;;3.13;2.35;;;;;;;;;;4997101;28;20703;-14
2022/04/25 00:40:00;;;;;;;4.30;2.42;;;;;;;;;;5000902;28;20243;-14
2022/04/25 00:42:27;;;;;;;3.92;2.35;;;;;;;;;;5000554;28;20234;-14
2022/04/25 00:44:54;;;;;;;3.95;2.10;;;;;;;;;;5002027;28;20243;-14
2022/04/25 00:47:22;;;;;;;5.30;1.70;;;;;;;;;;4993013;28;20235;-14
2022/04/25 00:49:49;;;;;;;3.42;2.08;;;;;;;;;;5001043;28;20236;-15
2022/04/25 00:52:16;;;;;;;3.03;2.33;;;;;;;;;;4989108;28;20247;-14
2022/04/25 00:54:45;;;;;;;4.07;2.50;;;;;;;;;;5003287;28;20235;-15
2022/04/25 00:57:12;;;;;;;3.17;2.10;;;;;;;;;;4995671;28;20243;-14
2022/04/25 00:59:40;;;;;;;2.30;2.08;;;;;;;;;;5003812;28;20235;-14
2022/04/25 01:02:08;;;;;;;2.85;1.92;;;;;;;;;;4996806;28;20996;-14
2022/04/25 01:04:35;;;;;;;3.47;2.08;;;;;;;;;;4995922;28;20327;-14
2022/04/25 01:07:03;;;;;;;3.55;2.08;;;;;;;;;;4998403;28;20737;-14
2022/04/25 01:09:30;;;;;;;2.70;1.98;;;;;;;;;;4995329;28;20242;-14
2022/04/25 01:11:59;;;;;;;2.65;2.00;;;;;;;;;;4997400;28;20241;-14
2022/04/25 01:14:26;;;;;;;3.47;2.05;;;;;;;;;;4994603;28;20228;-14
2022/04/25 01:16:54;;;;;;;3.30;1.90;;;;;;;;;;4987057;28;20277;-14
2022/04/25 01:19:22;;;;;;;3.13;2.28;;;;;;;;;;4991867;28;20236;-14
2022/04/25 01:21:52;;;;;;;2.30;2.10;;;;;;;;;;5002000;28;20266;-14
2022/04/25 01:27:17;;;;;;;5.20;2.03;;;;;;;;;;4996779;28;20720;-14
2022/04/25 01:29:45;;;;;;;4.35;2.17;;;;;;;;;;4996244;28;20618;-14
2022/04/25 01:32:12;;;;;;;7.10;2.50;;;;;;;;;;4999535;28;20240;-14
2022/04/25 01:34:40;;;;;;;3.30;2.20;;;;;;;;;;4998990;28;20320;-14
2022/04/25 01:37:07;;;;;;;3.75;2.17;;;;;;;;;;4990417;28;20734;-14
2022/04/25 01:39:37;;;;;;;2.75;2.08;;;;;;;;;;5001201;28;20247;-14
2022/04/25 01:42:04;;;;;;;3.58;2.13;;;;;;;;;;4994996;28;20234;-14
2022/04/25 01:44:32;;;;;;;3.03;2.13;;;;;;;;;;4997080;28;20236;-14
2022/04/25 01:47:00;;;;;;;3.95;2.08;;;;;;;;;;4997731;28;20227;-14
2022/04/25 01:49:27;;;;;;;3.80;2.20;;;;;;;;;;4996850;28;20232;-14
2022/04/25 01:51:54;;;;;;;3.65;2.40;;;;;;;;;;4999340;28;20778;-14
2022/04/25 01:54:24;;;;;;;2.90;2.00;;;;;;;;;;4995834;28;20239;-14
2022/04/25 01:56:52;;;;;;;3.55;2.17;;;;;;;;;;4999670;28;20251;-14
2022/04/25 01:59:20;;;;;;;2.50;2.28;;;;;;;;;;4994163;28;20267;-14
2022/04/25 02:01:47;;;;;;;3.15;2.22;;;;;;;;;;4998034;28;20236;-14
2022/04/25 02:04:15;;;;;;;3.72;2.33;;;;;;;;;;4999312;28;20242;-14
2022/04/25 02:06:42;;;;;;;3.22;2.17;;;;;;;;;;4996046;28;20235;-14
2022/04/25 02:09:09;;;;;;;2.50;2.17;;;;;;;;;;4996767;28;21019;-14
2022/04/25 02:11:37;;;;;;;2.50;2.10;;;;;;;;;;4989359;28;20239;-14
2022/04/25 02:14:05;;;;;;;3.90;2.28;;;;;;;;;;4997993;28;20794;-14
2022/04/25 02:16:33;;;;;;;3.33;2.30;;;;;;;;;;4995192;28;20243;-14
2022/04/25 02:19:00;;;;;;;5.07;2.13;;;;;;;;;;4997709;28;20703;-14
2022/04/25 02:21:27;;;;;;;2.38;2.08;;;;;;;;;;4999386;22;84364;-17
2022/04/25 02:23:55;;;;;;;3.45;2.30;;;;;;;;;;4984215;28;20235;-15
2022/04/25 02:26:23;;;;;;;3.85;2.83;;;;;;;;;;4978878;28;20619;-16
2022/04/25 02:28:50;;;;;;;3.65;2.28;;;;;;;;;;4976152;28;20232;-16
2022/04/25 02:31:19;;;;;;;2.55;2.05;;;;;;;;;;4981399;28;20232;-15
2022/04/25 02:33:46;;;;;;;3.17;2.55;;;;;;;;;;4981033;28;20681;-15
2022/04/25 02:36:13;;;;;;;2.20;2.00;;;;;;;;;;4982461;28;20212;-17
2022/04/25 02:38:41;;;;;;;4.15;2.25;;;;;;;;;;4979096;28;21517;-17
2022/04/25 02:41:09;;;;;;;3.85;2.40;;;;;;;;;;4981260;28;20624;-16
2022/04/25 02:43:37;;;;;;;5.80;2.38;;;;;;;;;;4978040;28;20217;-17
2022/04/25 02:46:05;;;;;;;3.92;2.00;;;;;;;;;;4981911;28;20233;-17
2022/04/25 02:48:33;;;;;;;2.53;2.10;;;;;;;;;;4980642;28;20217;-17
2022/04/25 02:51:01;;;;;;;3.00;2.30;;;;;;;;;;4979514;28;20233;-17
2022/04/25 02:53:28;;;;;;;2.80;2.50;;;;;;;;;;4980373;28;20231;-17
2022/04/25 02:55:55;;;;;;;3.00;2.55;;;;;;;;;;4981846;28;20235;-17
2022/04/25 02:58:23;;;;;;;2.92;2.15;;;;;;;;;;4981473;28;20245;-16
2022/04/25 03:00:50;;;;;;;3.47;2.22;;;;;;;;;;4978794;28;20255;-16
2022/04/25 03:03:18;;;;;;;2.83;2.58;;;;;;;;;;4980137;28;20224;-17
2022/04/25 03:05:47;;;;;;;3.30;2.40;;;;;;;;;;4983177;28;20277;-16
2022/04/25 03:08:15;;;;;;;2.63;2.30;;;;;;;;;;4980580;28;20977;-16
2022/04/25 03:10:43;;;;;;;3.55;2.67;;;;;;;;;;4986177;28;20239;-15
2022/04/25 03:13:10;;;;;;;3.40;2.28;;;;;;;;;;4984035;28;20220;-15
2022/04/25 03:15:38;;;;;;;4.53;2.50;;;;;;;;;;4983120;28;20233;-17
2022/04/25 03:18:06;;;;;;;3.33;2.55;;;;;;;;;;4983069;28;20236;-17
2022/04/25 03:20:33;;;;;;;3.20;2.45;;;;;;;;;;4985330;28;20227;-18
2022/04/25 03:23:02;;;;;;;3.47;2.35;;;;;;;;;;4986860;28;20212;-16
2022/04/25 03:25:29;;;;;;;6.93;2.47;;;;;;;;;;4983337;28;20233;-17
2022/04/25 03:27:57;;;;;;;4.50;2.80;;;;;;;;;;4984568;28;20707;-17
2022/04/25 03:30:24;;;;;;;3.28;2.50;;;;;;;;;;4983742;28;20229;-17
2022/04/25 03:32:52;;;;;;;3.83;2.30;;;;;;;;;;4979229;28;20716;-16
2022/04/25 03:35:19;;;;;;;3.38;2.30;;;;;;;;;;4982567;28;20232;-15
2022/04/25 03:37:47;;;;;;;4.05;2.83;;;;;;;;;;4983100;28;20707;-15
2022/04/25 03:40:15;;;;;;;3.47;2.53;;;;;;;;;;4982781;28;20221;-15
2022/04/25 03:42:44;;;;;;;2.85;2.30;;;;;;;;;;4981704;28;20220;-17
2022/04/25 03:45:12;;;;;;;3.22;2.50;;;;;;;;;;4984882;28;20236;-16
2022/04/25 03:47:39;;;;;;;2.50;2.30;;;;;;;;;;4974313;28;20233;-15
2022/04/25 03:50:08;;;;;;;2.78;2.50;;;;;;;;;;4978855;28;20221;-17
2022/04/25 03:52:35;;;;;;;2.90;2.53;;;;;;;;;;4977943;28;20284;-17
2022/04/25 03:57:47;;;;;;;3.25;2.70;;;;;;;;;;4969719;28;20246;-16
2022/04/25 04:00:14;;;;;;;5.13;3.28;;;;;;;;;;4979409;28;20232;-15
2022/04/25 04:02:41;;;;;;;2.53;2.33;;;;;;;;;;4979801;28;20220;-16
2022/04/25 04:05:09;;;;;;;2.65;2.45;;;;;;;;;;4978062;28;20350;-15
2022/04/25 04:07:36;;;;;;;3.33;2.58;;;;;;;;;;4981918;28;20225;-16
2022/04/25 04:10:04;;;;;;;3.30;2.70;;;;;;;;;;4976423;28;20722;-15
2022/04/25 04:12:32;;;;;;;2.80;2.47;;;;;;;;;;4983469;28;20759;-16
2022/04/25 04:15:02;;;;;;;5.05;2.63;;;;;;;;;;4981749;28;20248;-17
2022/04/25 04:17:29;;;;;;;2.88;2.22;;;;;;;;;;4984595;28;20240;-15
2022/04/25 04:19:57;;;;;;;4.05;3.00;;;;;;;;;;4979450;28;20240;-16
2022/04/25 04:22:25;;;;;;;2.80;2.38;;;;;;;;;;4978588;28;20255;-15
2022/04/25 04:24:52;;;;;;;2.70;2.50;;;;;;;;;;4984629;28;21066;-16
2022/04/25 04:27:19;;;;;;;3.10;2.50;;;;;;;;;;4976525;28;20220;-17
2022/04/25 04:29:47;;;;;;;3.55;3.08;;;;;;;;;;4961579;28;20234;-17
2022/04/25 04:32:15;;;;;;;3.72;3.05;;;;;;;;;;4975460;28;20779;-17
2022/04/25 04:34:43;;;;;;;2.92;2.72;;;;;;;;;;4985622;28;20235;-17
2022/04/25 04:37:10;;;;;;;5.07;3.25;;;;;;;;;;4984329;28;20231;-16
2022/04/25 04:39:37;;;;;;;5.10;2.95;;;;;;;;;;4981829;28;21043;-16
2022/04/25 04:42:05;;;;;;;3.85;2.80;;;;;;;;;;4983105;28;20236;-16
2022/04/25 04:44:32;;;;;;;4.28;3.03;;;;;;;;;;4977080;28;20239;-16
2022/04/25 04:47:00;;;;;;;3.83;3.25;;;;;;;;;;4982367;28;20228;-16
2022/04/25 04:49:29;;;;;;;4.72;3.70;;;;;;;;;;4974084;28;20962;-16
2022/04/25 04:51:56;;;;;;;3.80;3.40;;;;;;;;;;4983096;28;20259;-16
2022/04/25 04:54:24;;;;;;;4.65;3.28;;;;;;;;;;4978643;28;20233;-16
2022/04/25 04:56:51;;;;;;;5.85;4.20;;;;;;;;;;4981849;28;20228;-16
2022/04/25 04:59:18;;;;;;;5.18;3.47;;;;;;;;;;4975295;28;20245;-16
2022/04/25 05:01:46;;;;;;;5.55;3.83;;;;;;;;;;4974425;28;20707;-16
2022/04/25 05:04:13;;;;;;;5.68;3.85;;;;;;;;;;4981197;28;20241;-16
2022/04/25 05:06:42;;;;;;;5.53;4.68;;;;;;;;;;4981619;28;20238;-16
2022/04/25 05:09:09;;;;;;;5.05;4.03;;;;;;;;;;4978086;28;20612;-16
2022/04/25 05:11:36;;;;;;;7.30;4.40;;;;;;;;;;4976504;28;20243;-16
2022/04/25 05:14:09;;;;;;;5.43;4.20;;;;;;;;;;4984554;28;20216;-16
2022/04/25 05:16:36;;;;;;;5.85;4.32;;;;;;;;;;4978314;28;20225;-16
2022/04/25 05:19:03;;;;;;;7.65;4.07;;;;;;;;;;4981953;28;20287;-16
2022/04/25 05:21:31;;;;;;;6.88;4.22;;;;;;;;;;4981940;28;20829;-17
2022/04/25 05:24:00;;;;;;;6.00;4.30;;;;;;;;;;4979117;28;20217;-16
2022/04/25 05:26:27;;;;;;;6.28;4.45;;;;;;;;;;4980271;28;20715;-16
2022/04/25 05:28:54;;;;;;;5.50;4.30;;;;;;;;;;4979620;28;20225;-16
2022/04/25 05:31:22;;;;;;;8.52;4.55;;;;;;;;;;4981744;28;20746;-16
2022/04/25 05:33:49;;;;;;;5.65;4.53;;;;;;;;;;4981081;28;20707;-16
2022/04/25 05:36:16;;;;;;;8.77;5.35;;;;;;;;;;4977235;28;20228;-16
2022/04/25 05:38:44;;;;;;;6.88;5.20;;;;;;;;;;4984428;28;20224;-16
2022/04/25 05:41:12;;;;;;;6.18;5.32;;;;;;;;;;4981463;28;20232;-16
2022/04/25 05:43:40;;;;;;;9.40;6.10;;;;;;;;;;4980402;28;20233;-16
2022/04/25 05:46:07;;;;;;;10.13;6.18;;;;;;;;;;4964943;28;20236;-16
2022/04/25 05:54:05;;;;;;;9.98;7.07;;;;;;;;;;4981138;28;20225;-16
2022/04/25 05:56:34;;;;;;;8.65;7.00;;;;;;;;;;4979788;28;20213;-16
2022/04/25 05:59:02;;;;;;;8.57;7.32;;;;;;;;;;4980084;28;20291;-16
2022/04/25 06:01:29;;;;;;;7.28;6.43;;;;;;;;;;4977025;28;20233;-16
2022/04/25 06:03:57;;;;;;;8.13;6.18;;;;;;;;;;4975564;28;20667;-16
2022/04/25 06:06:26;;;;;;;8.93;6.65;;;;;;;;;;4977360;28;20233;-16
2022/04/25 06:08:53;;;;;;;10.82;7.22;;;;;;;;;;4972851;28;20244;-16
2022/04/25 06:11:21;;;;;;;7.60;6.72;;;;;;;;;;4974755;28;20243;-16
2022/04/25 06:13:52;;;;;;;8.80;7.18;;;;;;;;;;4974601;28;20235;-16
2022/04/25 06:16:19;;;;;;;7.40;6.50;;;;;;;;;;4970937;28;20229;-16
2022/04/25 06:18:46;;;;;;;8.52;6.72;;;;;;;;;;4969864;28;20240;-16
2022/04/25 06:21:14;;;;;;;7.82;6.63;;;;;;;;;;4969525;28;20248;-16
2022/04/25 06:23:41;;;;;;;7.13;6.32;;;;;;;;;;4968910;28;20275;-16
2022/04/25 06:26:08;;;;;;;9.20;6.47;;;;;;;;;;4970979;28;20240;-16
2022/04/25 06:28:36;;;;;;;8.52;6.43;;;;;;;;;;4974990;28;20721;-16
2022/04/25 06:31:05;;;;;;;7.80;6.60;;;;;;;;;;4970051;28;20730;-16
2022/04/25 06:33:32;;;;;;;8.75;6.90;;;;;;;;;;4974901;28;20236;-16
2022/04/25 06:36:00;;;;;;;7.70;6.65;;;;;;;;;;4973005;28;20960;-16
2022/04/25 06:38:27;;;;;;;7.80;7.00;;;;;;;;;;4974782;28;20353;-16
2022/04/25 06:40:54;;;;;;;8.52;6.45;;;;;;;;;;4974240;28;20767;-16
2022/04/25 06:43:22;;;;;;;7.32;6.53;;;;;;;;;;4974009;28;20235;-16
2022/04/25 06:45:49;;;;;;;9.50;6.93;;;;;;;;;;4977132;28;20242;-16
2022/04/25 06:48:18;;;;;;;8.50;6.97;;;;;;;;;;4972623;28;20244;-16
2022/04/25 06:50:49;;;;;;;8.55;7.28;;;;;;;;;;4976947;28;20720;-16
2022/04/25 06:53:17;;;;;;;8.35;6.88;;;;;;;;;;4971792;28;20339;-16
2022/04/25 06:55:44;;;;;;;10.60;8.02;;;;;;;;;;4974512;28;20268;-16
2022/04/25 06:58:12;;;;;;;12.85;8.20;;;;;;;;;;4976412;28;20244;-16
2022/04/25 07:00:40;;;;;;;14.00;9.10;;;;;;;;;;4969760;28;20237;-16
2022/04/25 07:03:07;;;;;;;16.25;10.40;;;;;;;;;;4976874;28;20228;-16
2022/04/25 07:05:36;;;;;;;18.48;9.75;;;;;;;;;;4973240;28;20278;-16
2022/04/25 07:08:04;;;;;;;23.60;10.00;;;;;;;;;;4978255;28;20232;-16
2022/04/25 07:10:31;;;;;;;19.40;10.07;;;;;;;;;;4973683;28;20240;-16
2022/04/25 07:12:59;;;;;;;25.90;10.18;;;;;;;;;;4977828;28;20232;-16
2022/04/25 07:15:27;;;;;;;28.27;10.23;;;;;;;;;;4974670;28;20233;-16
2022/04/25 07:17:56;;;;;;;18.40;9.73;;;;;;;;;;4978377;28;20232;-16
2022/04/25 07:20:24;;;;;;;16.85;10.30;;;;;;;;;;4980229;28;20228;-16
2022/04/25 07:31:07;;;;;;;15.73;10.70;;;;;;;;;;4973920;28;20695;-16
2022/04/25 07:33:36;;;;;;;17.63;10.70;;;;;;;;;;4974712;28;20249;-16
2022/04/25 07:36:04;;;;;;;20.52;10.95;;;;;;;;;;4982835;28;20220;-16
2022/04/25 07:38:33;;;;;;;20.27;10.52;;;;;;;;;;4974934;28;20229;-16
2022/04/25 07:41:00;;;;;;;19.95;11.15;;;;;;;;;;4977036;28;20331;-16
2022/04/25 07:43:29;;;;;;;21.58;10.48;;;;;;;;;;4977203;28;20225;-16
2022/04/25 07:45:56;;;;;;;20.88;10.93;;;;;;;;;;4978274;28;20224;-16
2022/04/25 07:48:25;;;;;;;19.42;10.20;;;;;;;;;;4980635;28;20229;-16
2022/04/25 07:50:52;;;;;;;13.25;9.57;;;;;;;;;;4967963;28;20230;-16
2022/04/25 07:53:20;;;;;;;17.60;10.13;;;;;;;;;;4971268;28;21108;-16
2022/04/25 07:55:48;;;;;;;18.33;10.07;;;;;;;;;;4974301;28;20236;-16
2022/04/25 07:58:16;;;;;;;14.00;9.73;;;;;;;;;;4985411;28;20225;-16
2022/04/25 08:00:43;;;;;;;15.07;9.77;;;;;;;;;;4974958;28;20247;-16
2022/04/25 08:03:11;;;;;;;16.35;9.90;;;;;;;;;;4975790;28;20228;-16
2022/04/25 08:05:38;;;;;;;27.67;10.70;;;;;;;;;;4979351;28;20967;-16
2022/04/25 08:08:06;;;;;;;20.48;9.90;;;;;;;;;;4977316;28;20291;-16
2022/04/25 08:10:36;;;;;;;15.68;9.60;;;;;;;;;;4985598;28;20232;-16
2022/04/25 08:18:35;;;;;;;14.70;9.35;;;;;;;;;;4977313;28;20231;-18
2022/04/25 08:21:02;;;;;;;15.75;9.30;;;;;;;;;;4980969;28;20252;-17
2022/04/25 08:23:29;;;;;;;18.02;10.45;;;;;;;;;;4975036;28;20243;-17
2022/04/25 08:25:57;;;;;;;16.95;10.48;;;;;;;;;;4981287;28;20688;-17
2022/04/25 08:28:25;;;;;;;16.55;10.02;;;;;;;;;;4981919;28;20237;-17
2022/04/25 08:31:13;;;;;;;16.45;10.35;;;;;;;;;;4981824;28;20228;-18
2022/04/25 08:33:46;;;;;;;16.67;10.60;;;;;;;;;;4981434;28;20320;-19
2022/04/25 08:36:13;;;;;;;15.60;10.50;;;;;;;;;;4976738;28;20996;-19
2022/04/25 08:38:43;;;;;;;14.15;10.30;;;;;;;;;;4975561;28;20218;-18
2022/04/25 08:41:10;;;;;;;14.32;9.85;;;;;;;;;;4974357;28;20228;-18
2022/04/25 08:43:39;;;;;;;15.50;10.20;;;;;;;;;;4974665;28;20328;-17
2022/04/25 08:46:07;;;;;;;14.15;10.43;;;;;;;;;;4968497;28;20228;-17
2022/04/25 08:48:35;;;;;;;13.32;10.30;;;;;;;;;;4973517;28;20241;-17
2022/04/25 08:51:02;;;;;;;18.13;10.55;;;;;;;;;;4977286;28;20228;-19
2022/04/25 08:53:30;;;;;;;15.38;9.65;;;;;;;;;;4975315;28;20799;-19
2022/04/25 08:55:57;;;;;;;18.30;9.93;;;;;;;;;;4972015;28;20233;-18
2022/04/25 08:58:24;;;;;;;14.65;9.90;;;;;;;;;;4969990;28;20229;-19
2022/04/25 09:00:53;;;;;;;18.23;9.60;;;;;;;;;;4972962;28;20382;-18
2022/04/25 09:03:20;;;;;;;13.90;9.48;;;;;;;;;;4965502;28;20237;-18
2022/04/25 09:05:48;;;;;;;11.60;9.35;;;;;;;;;;4973512;28;20343;-19
2022/04/25 09:08:15;;;;;;;15.52;10.00;;;;;;;;;;4975354;28;20704;-17
2022/04/25 09:10:43;;;;;;;15.63;10.02;;;;;;;;;;4967472;28;20233;-17
2022/04/25 09:13:10;;;;;;;14.77;9.93;;;;;;;;;;4964770;28;20327;-19
2022/04/25 09:15:37;;;;;;;14.73;9.30;;;;;;;;;;4976271;28;20631;-19
2022/04/25 09:18:06;;;;;;;11.90;8.93;;;;;;;;;;4984137;28;20237;-19
2022/04/25 09:20:33;;;;;;;14.35;9.90;;;;;;;;;;4983870;28;20258;-17
2022/04/25 09:23:01;;;;;;;13.00;9.18;;;;;;;;;;4974583;28;20239;-17
2022/04/25 09:25:28;;;;;;;17.90;10.23;;;;;;;;;;4979256;28;20264;-17
2022/04/25 09:28:12;;;;;;;14.07;9.25;;;;;;;;;;4977588;28;20703;-18
2022/04/25 09:30:40;;;;;;;18.92;8.80;;;;;;;;;;4974888;28;20240;-17
2022/04/25 09:33:23;;;;;;;15.63;8.70;;;;;;;;;;4976623;28;20268;-17
2022/04/25 09:35:53;;;;;;;18.67;8.45;;;;;;;;;;4978543;28;20228;-18
2022/04/25 09:38:28;;;;;;;15.07;8.65;;;;;;;;;;4977386;28;20237;-17
2022/04/25 09:40:55;;;;;;;12.68;8.57;;;;;;;;;;4976842;28;20236;-18
2022/04/25 09:43:24;;;;;;;12.15;8.70;;;;;;;;;;4961392;28;20229;-18
2022/04/25 09:45:53;;;;;;;13.68;8.43;;;;;;;;;;4969764;28;20992;-18
2022/04/25 09:48:20;;;;;;;13.43;8.43;;;;;;;;;;4975114;28;20237;-18
2022/04/25 09:50:59;;;;;;;13.65;8.80;;;;;;;;;;4983835;28;20238;-18
2022/04/25 09:53:40;;;;;;;14.32;8.68;;;;;;;;;;4982699;28;20722;-18
2022/04/25 09:56:12;;;;;;;12.80;8.55;;;;;;;;;;4979752;28;20228;-18
2022/04/25 09:58:40;;;;;;;13.85;8.05;;;;;;;;;;4977579;28;20213;-18
2022/04/25 10:01:13;;;;;;;12.88;7.72;;;;;;;;;;4975948;28;20250;-17
2022/04/25 10:03:40;;;;;;;12.98;7.25;;;;;;;;;;4977694;28;20754;-18
2022/04/25 10:06:09;;;;;;;10.90;7.63;;;;;;;;;;4977337;28;20218;-18
2022/04/25 10:08:37;;;;;;;10.32;7.28;;;;;;;;;;4981021;28;20233;-17
2022/04/25 10:11:05;;;;;;;11.52;7.05;;;;;;;;;;4984089;28;20232;-17
2022/04/25 10:13:32;;;;;;;9.95;7.20;;;;;;;;;;4984107;28;20232;-18
2022/04/25 10:16:00;;;;;;;13.60;7.53;;;;;;;;;;4980062;28;20241;-18
2022/04/25 10:18:28;;;;;;;9.50;6.75;;;;;;;;;;4979254;28;20229;-18
2022/04/25 10:20:55;;;;;;;9.10;6.65;;;;;;;;;;4981539;28;20252;-18
2022/04/25 10:23:25;;;;;;;10.15;7.38;;;;;;;;;;4979746;28;20341;-18
2022/04/25 10:25:54;;;;;;;17.20;6.88;;;;;;;;;;4981923;28;20999;-18
2022/04/25 10:28:23;;;;;;;12.40;6.47;;;;;;;;;;4982834;28;20625;-18
2022/04/25 10:30:51;;;;;;;16.58;7.22;;;;;;;;;;4982382;28;20231;-18
2022/04/25 10:33:19;;;;;;;11.75;7.28;;;;;;;;;;4981007;28;20315;-17
2022/04/25 10:35:46;;;;;;;18.58;7.00;;;;;;;;;;4983577;28;20236;-17
2022/04/25 10:38:49;;;;;;;9.13;6.35;;;;;;;;;;4981037;28;20225;-18
2022/04/25 10:44:26;;;;;;;9.40;6.78;;;;;;;;;;4983212;28;20224;-17
2022/04/25 10:47:11;;;;;;;10.40;7.40;;;;;;;;;;4968521;28;20224;-17
2022/04/25 10:49:38;;;;;;;9.60;6.55;;;;;;;;;;4976668;28;20231;-17
2022/04/25 10:52:07;;;;;;;12.57;8.02;;;;;;;;;;4982595;28;20233;-17
2022/04/25 10:54:48;;;;;;;15.15;7.78;;;;;;;;;;4983458;28;20217;-17
2022/04/25 10:57:15;;;;;;;11.48;7.50;;;;;;;;;;4973477;28;20236;-17
2022/04/25 10:59:42;;;;;;;11.10;6.80;;;;;;;;;;4976284;28;20237;-17
2022/04/25 11:02:28;;;;;;;10.93;6.93;;;;;;;;;;4970631;28;20240;-17
2022/04/25 11:05:14;;;;;;;14.57;7.97;;;;;;;;;;4964925;28;20237;-19
2022/04/25 11:07:42;;;;;;;16.48;7.57;;;;;;;;;;4968345;28;20226;-17
2022/04/25 11:10:31;;;;;;;10.77;7.10;;;;;;;;;;4973038;28;20244;-16
2022/04/25 11:12:58;;;;;;;13.25;7.75;;;;;;;;;;4981079;28;20233;-19
2022/04/25 11:15:39;;;;;;;17.13;7.35;;;;;;;;;;4981240;28;20635;-19
2022/04/25 11:18:21;;;;;;;12.98;7.50;;;;;;;;;;4982738;28;20243;-19
2022/04/25 11:20:55;;;;;;;13.38;7.45;;;;;;;;;;4975269;28;20279;-19
2022/04/25 11:23:26;;;;;;;12.52;6.72;;;;;;;;;;4982072;28;20247;-19
2022/04/25 11:25:56;;;;;;;12.82;6.20;;;;;;;;;;4982583;28;20263;-19
2022/04/25 11:28:23;;;;;;;10.20;6.70;;;;;;;;;;4981074;28;20283;-19
2022/04/25 11:31:18;;;;;;;11.20;6.30;;;;;;;;;;4981406;28;20241;-19
2022/04/25 11:33:45;;;;;;;8.85;6.05;;;;;;;;;;4980756;28;20296;-19
2022/04/25 11:36:13;;;;;;;13.27;6.82;;;;;;;;;;4983734;28;20688;-19
2022/04/25 11:41:27;;;;;;;6.28;5.45;;;;;;;;;;4983581;28;20323;-19
2022/04/25 11:43:55;;;;;;;9.13;5.95;;;;;;;;;;4985695;28;20229;-19
2022/04/25 11:46:22;;;;;;;11.27;6.53;;;;;;;;;;4985072;28;21599;-18
2022/04/25 11:48:49;;;;;;;10.15;5.75;;;;;;;;;;4984744;28;20239;-19
2022/04/25 11:51:22;;;;;;;7.05;5.82;;;;;;;;;;4982701;28;20237;-19
2022/04/25 11:53:49;;;;;;;10.30;5.85;;;;;;;;;;4985262;28;20243;-17
2022/04/25 11:56:17;;;;;;;7.68;5.93;;;;;;;;;;4983717;28;20228;-18
2022/04/25 11:58:45;;;;;;;8.25;5.97;;;;;;;;;;4985856;28;20262;-19
2022/04/25 12:01:13;;;;;;;6.07;5.13;;;;;;;;;;4980615;28;21037;-19
2022/04/25 12:03:40;;;;;;;7.38;5.97;;;;;;;;;;4986331;28;20238;-18
2022/04/25 12:06:08;;;;;;;9.00;6.13;;;;;;;;;;4979022;28;20241;-18
2022/04/25 12:17:04;;;;;;;9.30;6.03;;;;;;;;;;4924327;29;20597;-19
2022/04/25 12:19:32;;;;;;;7.93;5.47;;;;;;;;;;4970882;28;20463;-19
2022/04/25 12:22:01;;;;;;;8.93;5.90;;;;;;;;;;4982636;28;20247;-18
2022/04/25 12:24:28;;;;;;;7.50;5.20;;;;;;;;;;4984030;28;20236;-18
2022/04/25 12:27:09;;;;;;;7.00;5.55;;;;;;;;;;4982714;28;20282;-18
2022/04/25 12:29:39;;;;;;;10.52;6.00;;;;;;;;;;4986202;28;20231;-18
2022/04/25 12:32:09;;;;;;;7.18;5.55;;;;;;;;;;4981688;28;20247;-18
2022/04/25 12:34:36;;;;;;;7.80;5.18;;;;;;;;;;4981209;28;21498;-18
2022/04/25 12:37:04;;;;;;;7.50;5.30;;;;;;;;;;4985135;28;20231;-18
2022/04/25 12:39:31;;;;;;;6.60;5.50;;;;;;;;;;4983046;28;21057;-18
2022/04/25 12:41:59;;;;;;;8.18;5.53;;;;;;;;;;4984024;28;20233;-18
2022/04/25 12:44:26;;;;;;;8.90;6.07;;;;;;;;;;4983708;28;20232;-18
2022/04/25 12:47:01;;;;;;;8.70;5.70;;;;;;;;;;4984165;28;20327;-18
2022/04/25 12:49:32;;;;;;;6.82;5.72;;;;;;;;;;4984581;28;20227;-18
2022/04/25 12:52:00;;;;;;;6.25;5.47;;;;;;;;;;4982716;28;20330;-18
2022/04/25 12:54:30;;;;;;;7.25;5.68;;;;;;;;;;4984301;28;20235;-18
2022/04/25 12:57:16;;;;;;;7.50;5.45;;;;;;;;;;4982458;28;20232;-19
2022/04/25 12:59:44;;;;;;;7.65;5.38;;;;;;;;;;4975134;28;20817;-18
2022/04/25 13:02:14;;;;;;;7.22;5.80;;;;;;;;;;4977786;28;20247;-19
2022/04/25 13:04:52;;;;;;;8.45;5.47;;;;;;;;;;4978656;28;20283;-18
2022/04/25 13:07:20;;;;;;;7.47;5.45;;;;;;;;;;4982221;28;20220;-19
2022/04/25 13:09:47;;;;;;;7.10;4.85;;;;;;;;;;4984362;28;20699;-19
2022/04/25 13:12:18;;;;;;;6.25;4.90;;;;;;;;;;4982960;28;20236;-19
2022/04/25 13:14:46;;;;;;;6.97;5.35;;;;;;;;;;4984830;28;21002;-19
2022/04/25 13:17:14;;;;;;;5.75;4.80;;;;;;;;;;4980808;28;20265;-19
2022/04/25 13:19:42;;;;;;;9.90;5.95;;;;;;;;;;4984682;28;20240;-18
2022/04/25 13:22:10;;;;;;;7.30;5.55;;;;;;;;;;4981167;28;20678;-19
2022/04/25 13:24:37;;;;;;;6.93;5.15;;;;;;;;;;4978064;28;20217;-18
2022/04/25 13:27:06;;;;;;;8.88;5.90;;;;;;;;;;4984399;28;20695;-18
2022/04/25 13:29:33;;;;;;;8.27;5.43;;;;;;;;;;4980157;28;20232;-19
2022/04/25 13:32:01;;;;;;;8.68;6.10;;;;;;;;;;4980755;28;20338;-19
2022/04/25 13:34:30;;;;;;;7.47;5.80;;;;;;;;;;4985029;28;20220;-19
2022/04/25 13:37:02;;;;;;;7.32;5.00;;;;;;;;;;4985393;28;20244;-19
2022/04/25 13:39:29;;;;;;;7.40;5.13;;;;;;;;;;4982229;28;20236;-19
2022/04/25 13:41:58;;;;;;;7.95;5.70;;;;;;;;;;4981658;28;20236;-19
2022/04/25 13:44:25;;;;;;;6.72;5.47;;;;;;;;;;4982642;28;20232;-19
2022/04/25 13:46:52;;;;;;;6.55;4.90;;;;;;;;;;4981687;28;20255;-19
2022/04/25 13:49:20;;;;;;;6.85;5.13;;;;;;;;;;4983241;28;20307;-19
2022/04/25 13:51:49;;;;;;;7.10;5.40;;;;;;;;;;4984222;28;20725;-19
2022/04/25 13:54:16;;;;;;;7.43;5.95;;;;;;;;;;4980894;28;20704;-19
2022/04/25 13:56:43;;;;;;;6.75;5.20;;;;;;;;;;4984034;28;20232;-19
2022/04/25 13:59:11;;;;;;;8.10;5.88;;;;;;;;;;4981367;28;20229;-19
2022/04/25 14:01:38;;;;;;;7.20;5.50;;;;;;;;;;4983951;28;20675;-17
2022/04/25 14:04:06;;;;;;;7.80;6.10;;;;;;;;;;4983814;28;20236;-17
2022/04/25 14:06:33;;;;;;;6.60;5.18;;;;;;;;;;4983216;28;20232;-17
2022/04/25 14:09:02;;;;;;;6.00;5.03;;;;;;;;;;4980469;28;20248;-17
2022/04/25 14:11:31;;;;;;;7.05;5.68;;;;;;;;;;4981805;28;20228;-18
2022/04/25 14:13:58;;;;;;;7.35;5.25;;;;;;;;;;4983480;28;20241;-17
2022/04/25 14:16:26;;;;;;;7.00;5.65;;;;;;;;;;4980641;28;20343;-18
2022/04/25 14:18:54;;;;;;;6.03;5.13;;;;;;;;;;4982318;28;20264;-17
2022/04/25 14:21:22;;;;;;;7.47;5.03;;;;;;;;;;4982821;28;20240;-17
2022/04/25 14:23:50;;;;;;;6.93;5.20;;;;;;;;;;4981840;28;20224;-17
2022/04/25 14:26:18;;;;;;;5.45;4.70;;;;;;;;;;4982590;28;20237;-17
2022/04/25 14:28:46;;;;;;;7.32;4.97;;;;;;;;;;4983544;28;20220;-17
2022/04/25 14:31:33;;;;;;;7.50;6.05;;;;;;;;;;4979916;28;20303;-19
2022/04/25 14:34:00;;;;;;;6.28;5.22;;;;;;;;;;4983236;28;20248;-19
2022/04/25 14:36:28;;;;;;;6.57;4.93;;;;;;;;;;4979975;28;21007;-19
2022/04/25 14:38:55;;;;;;;5.82;4.90;;;;;;;;;;4981992;28;20228;-19
2022/04/25 14:41:24;;;;;;;6.05;5.18;;;;;;;;;;4976589;28;20239;-18
2022/04/25 14:43:51;;;;;;;7.00;5.18;;;;;;;;;;4982067;28;21004;-18
2022/04/25 14:46:18;;;;;;;8.57;6.25;;;;;;;;;;4973583;28;20248;-18
2022/04/25 14:48:46;;;;;;;8.32;5.70;;;;;;;;;;4977379;28;20240;-19
2022/04/25 14:56:41;;;;;;;8.10;5.05;;;;;;;;;;4982119;28;20751;-19
2022/04/25 14:59:08;;;;;;;7.03;5.40;;;;;;;;;;4974751;28;20225;-18
2022/04/25 15:01:35;;;;;;;7.55;5.47;;;;;;;;;;4979972;28;20295;-18
2022/04/25 15:04:03;;;;;;;6.85;5.55;;;;;;;;;;4983792;28;20274;-18
2022/04/25 15:06:30;;;;;;;7.68;6.00;;;;;;;;;;4984334;28;21065;-19
2022/04/25 15:08:57;;;;;;;7.22;5.40;;;;;;;;;;4985636;28;20234;-18
2022/04/25 15:11:25;;;;;;;7.43;5.22;;;;;;;;;;4985070;28;20232;-19
2022/04/25 15:13:53;;;;;;;5.95;5.18;;;;;;;;;;4985174;28;20240;-18
2022/04/25 15:16:21;;;;;;;6.32;5.30;;;;;;;;;;4983327;28;20220;-19
2022/04/25 15:18:48;;;;;;;7.75;5.50;;;;;;;;;;4984101;28;20803;-18
2022/04/25 15:21:15;;;;;;;8.32;5.85;;;;;;;;;;4984078;28;20248;-19
2022/04/25 15:23:47;;;;;;;6.25;5.40;;;;;;;;;;4986825;28;20766;-19
2022/04/25 15:26:15;;;;;;;7.95;5.20;;;;;;;;;;4986447;28;20750;-19
2022/04/25 15:28:42;;;;;;;7.03;5.35;;;;;;;;;;4983541;28;20228;-19
2022/04/25 15:31:11;;;;;;;6.57;5.50;;;;;;;;;;4985388;28;20228;-19